createdAt,value
2023-05-15T00:00:18.006Z,100705.09
2023-05-15T00:02:48.181Z,100706.22
2023-05-15T00:05:18.219Z,100704.03
2023-05-15T00:07:47.724Z,100704.81
2023-05-15T00:10:17.655Z,100706.50
2023-05-15T00:12:47.718Z,100705.09
2023-05-15T00:15:25.928Z,100706.72
2023-05-15T00:17:56.059Z,100711.91
2023-05-15T00:20:26.156Z,100711.03
2023-05-15T00:22:55.772Z,100705.81
2023-05-15T00:25:25.496Z,100710.72
2023-05-15T00:27:55.363Z,100724.63
2023-05-15T00:30:23.821Z,100725.06
2023-05-15T00:32:53.098Z,100731.00
2023-05-15T00:35:22.092Z,100729.50
2023-05-15T00:37:56.508Z,100722.88
2023-05-15T00:40:27.972Z,100719.91
2023-05-15T00:42:57.887Z,100719.84
2023-05-15T00:45:27.569Z,100727.19
2023-05-15T00:48:00.504Z,100737.13
2023-05-15T00:50:31.159Z,100737.06
2023-05-15T00:53:01.527Z,100730.50
2023-05-15T00:55:35.151Z,100743.50
2023-05-15T00:58:04.817Z,100740.00
2023-05-15T01:00:35.316Z,100745.91
2023-05-15T01:03:06.857Z,100735.78
2023-05-15T01:05:36.870Z,100746.47
2023-05-15T01:08:09.340Z,100752.78
2023-05-15T01:10:40.050Z,100753.97
2023-05-15T01:13:10.806Z,100764.28
2023-05-15T01:15:43.421Z,100759.91
2023-05-15T01:18:15.264Z,100767.28
2023-05-15T01:21:04.397Z,100777.19
2023-05-15T01:24:03.513Z,100774.19
2023-05-15T01:26:53.244Z,100783.72
2023-05-15T01:29:26.908Z,100790.50
2023-05-15T01:32:00.890Z,100789.78
2023-05-15T01:34:42.213Z,100795.31
2023-05-15T01:37:17.153Z,100811.63
2023-05-15T01:39:51.224Z,100819.19
2023-05-15T01:42:29.088Z,100818.38
2023-05-15T01:44:59.128Z,100827.22
2023-05-15T01:47:40.558Z,100827.22
2023-05-15T01:50:14.962Z,100824.16
2023-05-15T01:52:52.289Z,100837.63
2023-05-15T01:55:23.552Z,100834.91
2023-05-15T01:57:53.701Z,100831.34
2023-05-15T02:00:23.645Z,100837.78
2023-05-15T02:02:54.527Z,100841.44
2023-05-15T02:05:25.125Z,100843.50
2023-05-15T02:07:54.950Z,100845.53
2023-05-15T02:10:26.393Z,100848.94
2023-05-15T02:12:58.254Z,100848.13
2023-05-15T02:15:29.957Z,100852.69
2023-05-15T02:18:00.666Z,100864.44
2023-05-15T02:20:31.413Z,100860.50
2023-05-15T02:23:00.701Z,100862.50
2023-05-15T02:25:45.260Z,100865.59
2023-05-15T02:28:25.892Z,100862.50
2023-05-15T02:30:59.555Z,100873.75
2023-05-15T02:33:39.582Z,100872.06
2023-05-15T02:36:10.997Z,100876.13
2023-05-15T02:38:48.063Z,100879.72
2023-05-15T02:41:18.245Z,100876.44
2023-05-15T02:43:51.306Z,100873.03
2023-05-15T02:46:23.363Z,100879.72
2023-05-15T02:48:53.471Z,100881.50
2023-05-15T02:51:22.918Z,100885.25
2023-05-15T02:53:54.109Z,100884.31
2023-05-15T02:56:23.435Z,100887.16
2023-05-15T02:58:55.277Z,100899.81
2023-05-15T03:01:24.182Z,100892.22
2023-05-15T03:03:53.508Z,100896.97
2023-05-15T03:06:23.248Z,100895.94
2023-05-15T03:08:53.761Z,100898.25
2023-05-15T03:11:23.219Z,100906.19
2023-05-15T03:13:52.826Z,100900.47
2023-05-15T03:16:21.502Z,100904.00
2023-05-15T03:18:50.243Z,100905.41
2023-05-15T03:21:20.591Z,100899.44
2023-05-15T03:23:51.591Z,100905.94
2023-05-15T03:26:21.257Z,100907.16
2023-05-15T03:28:50.499Z,100909.34
2023-05-15T03:31:19.725Z,100923.72
2023-05-15T03:33:50.480Z,100924.56
2023-05-15T03:36:23.568Z,100926.31
2023-05-15T03:38:53.884Z,100925.22
2023-05-15T03:41:23.235Z,100922.91
2023-05-15T03:43:51.877Z,100923.13
2023-05-15T03:46:21.612Z,100922.31
2023-05-15T03:48:51.507Z,100922.53
2023-05-15T03:51:21.912Z,100934.84
2023-05-15T03:53:55.701Z,100931.41
2023-05-15T03:56:25.405Z,100943.28
2023-05-15T03:58:57.827Z,100942.47
2023-05-15T04:01:27.618Z,100939.00
2023-05-15T04:03:56.702Z,100947.88
2023-05-15T04:06:28.049Z,100951.84
2023-05-15T04:08:58.051Z,100950.34
2023-05-15T04:11:29.267Z,100954.84
2023-05-15T04:14:29.885Z,100954.34
2023-05-15T04:17:41.647Z,100963.44
2023-05-15T04:20:41.063Z,100960.44
2023-05-15T04:23:21.194Z,100950.44
2023-05-15T04:25:57.714Z,100963.19
2023-05-15T04:28:31.057Z,100964.06
2023-05-15T04:31:05.505Z,100964.53
2023-05-15T04:33:40.994Z,100965.41
2023-05-15T04:36:14.019Z,100977.53
2023-05-15T04:38:57.555Z,100978.28
2023-05-15T04:41:34.897Z,100978.34
2023-05-15T04:44:16.923Z,100980.03
2023-05-15T04:46:54.637Z,100982.69
2023-05-15T04:49:24.731Z,100981.94
2023-05-15T04:51:54.895Z,100980.94
2023-05-15T04:54:35.700Z,100977.25
2023-05-15T04:57:13.151Z,100981.00
2023-05-15T04:59:52.537Z,100989.56
2023-05-15T05:02:33.834Z,100979.94
2023-05-15T05:05:12.626Z,100984.34
2023-05-15T05:07:54.680Z,100981.44
2023-05-15T05:10:25.514Z,100983.34
2023-05-15T05:13:00.806Z,100977.13
2023-05-15T05:15:39.359Z,100979.00
2023-05-15T05:18:13.553Z,100983.59
2023-05-15T05:20:57.321Z,100988.75
2023-05-15T05:23:33.301Z,100986.91
2023-05-15T05:26:09.607Z,100988.22
2023-05-15T05:28:41.437Z,100993.59
2023-05-15T05:31:18.151Z,100992.38
2023-05-15T05:34:04.173Z,100996.31
2023-05-15T05:36:43.904Z,101000.25
2023-05-15T05:39:29.063Z,101006.28
2023-05-15T05:42:00.742Z,101013.13
2023-05-15T05:44:34.412Z,100997.53
2023-05-15T05:47:07.113Z,101012.50
2023-05-15T05:49:52.441Z,101012.50
2023-05-15T05:52:25.946Z,101005.69
2023-05-15T05:55:00.905Z,101008.81
2023-05-15T05:57:37.350Z,101019.38
2023-05-15T06:00:22.270Z,101015.78
2023-05-15T06:03:04.676Z,101012.47
2023-05-15T06:06:01.953Z,101015.78
2023-05-15T06:08:42.681Z,101020.19
2023-05-15T06:11:51.216Z,101026.03
2023-05-15T06:14:47.143Z,101027.44
2023-05-15T06:17:57.660Z,101032.63
2023-05-15T06:20:41.413Z,101035.56
2023-05-15T06:23:12.456Z,101028.47
2023-05-15T06:25:57.169Z,101027.69
2023-05-15T06:28:31.883Z,101043.69
2023-05-15T06:31:06.491Z,101040.22
2023-05-15T06:33:54.021Z,101041.00
2023-05-15T06:36:26.243Z,101043.47
2023-05-15T06:38:58.388Z,101059.69
2023-05-15T06:41:35.372Z,101054.28
2023-05-15T06:44:06.811Z,101054.28
2023-05-15T06:46:41.685Z,101055.97
2023-05-15T06:49:26.689Z,101051.13
2023-05-15T06:51:58.858Z,101059.06
2023-05-15T06:54:32.620Z,101054.50
2023-05-15T06:57:05.218Z,101056.16
2023-05-15T06:59:40.072Z,101063.06
2023-05-15T07:02:10.395Z,101066.81
2023-05-15T07:04:48.619Z,101073.00
2023-05-15T07:07:21.111Z,101078.22
2023-05-15T07:09:53.598Z,101077.97
2023-05-15T07:12:24.363Z,101085.72
2023-05-15T07:14:56.016Z,101089.22
2023-05-15T07:17:31.584Z,101083.00
2023-05-15T07:44:32.394Z,101108.34
2023-05-15T07:57:27.997Z,101116.22
2023-05-15T08:00:33.679Z,101120.75
2023-05-15T08:09:19.932Z,101120.28
2023-05-15T08:16:02.748Z,101128.72
2023-05-15T08:19:46.219Z,101133.84
2023-05-15T08:24:00.503Z,101139.06
2023-05-15T08:25:57.481Z,101140.81
2023-05-15T08:28:38.092Z,101139.81
2023-05-15T08:31:26.550Z,101146.63
2023-05-15T08:34:00.797Z,101155.72
2023-05-15T08:36:40.667Z,101149.03
2023-05-15T08:39:25.399Z,101143.78
2023-05-15T08:42:25.110Z,101145.47
2023-05-15T08:45:01.746Z,101144.72
2023-05-15T08:47:53.017Z,101147.69
2023-05-15T08:51:22.145Z,101139.31
2023-05-15T08:54:14.452Z,101135.50
2023-05-15T08:58:30.560Z,101131.81
2023-05-15T09:01:16.878Z,101128.38
2023-05-15T09:04:22.015Z,101126.56
2023-05-15T09:07:09.931Z,101135.06
2023-05-15T09:14:05.706Z,101129.84
2023-05-15T09:16:47.700Z,101131.88
2023-05-15T09:20:35.169Z,101135.78
2023-05-15T09:24:28.327Z,101134.78
2023-05-15T09:27:20.954Z,101137.31
2023-05-15T09:30:42.528Z,101135.19
2023-05-15T09:33:53.862Z,101130.38
2023-05-15T09:36:44.480Z,101149.84
2023-05-15T09:39:58.691Z,101143.25
2023-05-15T09:42:47.904Z,101144.72
2023-05-15T09:45:59.233Z,101138.88
2023-05-15T09:50:19.099Z,101157.88
2023-05-15T10:08:28.195Z,101149.03
2023-05-15T10:11:52.343Z,101147.94
2023-05-15T10:15:09.121Z,101141.69
2023-05-15T10:17:51.981Z,101147.94
2023-05-15T10:20:38.510Z,101151.75
2023-05-15T10:23:43.646Z,101146.94
2023-05-15T10:32:41.615Z,101143.00
2023-05-15T10:43:34.457Z,101140.25
2023-05-15T10:50:32.281Z,101131.97
2023-05-15T11:08:36.463Z,101165.19
2023-05-15T11:27:12.319Z,101154.78
2023-05-15T11:30:43.087Z,101156.81
2023-05-15T11:39:05.569Z,101151.91
2023-05-15T11:42:30.187Z,101155.16
2023-05-15T11:45:21.350Z,101155.59
2023-05-15T11:48:26.407Z,101157.31
2023-05-15T11:51:35.021Z,101144.44
2023-05-15T11:54:30.889Z,101141.53
2023-05-15T11:57:58.231Z,101148.75
2023-05-15T12:16:19.311Z,101156.81
2023-05-15T12:19:30.647Z,101155.56
2023-05-15T12:23:05.443Z,101160.47
2023-05-15T12:26:33.215Z,101161.34
2023-05-15T12:29:12.116Z,101154.03
2023-05-15T12:42:53.970Z,101154.88
2023-05-15T12:51:42.508Z,101150.09
2023-05-15T12:54:26.214Z,101157.34
2023-05-15T12:57:07.252Z,101148.19
2023-05-15T13:00:14.507Z,101143.72
2023-05-15T13:03:18.171Z,101149.53
2023-05-15T13:06:41.879Z,101152.03
2023-05-15T13:09:52.878Z,101148.25
2023-05-15T13:16:57.250Z,101150.69
2023-05-15T13:28:12.965Z,101149.75
2023-05-15T13:31:10.014Z,101149.94
2023-05-15T13:33:57.767Z,101143.50
2023-05-15T13:37:10.072Z,101139.38
2023-05-15T13:39:49.497Z,101142.28
2023-05-15T13:42:26.577Z,101142.06
2023-05-15T13:45:01.145Z,101144.13
2023-05-15T13:47:42.838Z,101149.31
2023-05-15T13:50:25.159Z,101146.38
2023-05-15T13:53:04.804Z,101149.91
2023-05-15T13:55:34.658Z,101135.13
2023-05-15T13:58:07.005Z,101132.84
2023-05-15T14:00:40.348Z,101129.69
2023-05-15T14:03:32.738Z,101138.06
2023-05-15T14:06:38.229Z,101129.00
2023-05-15T14:09:46.042Z,101132.88
2023-05-15T14:12:22.575Z,101126.44
2023-05-15T14:15:01.957Z,101121.97
2023-05-15T14:17:54.098Z,101121.56
2023-05-15T14:20:48.938Z,101128.59
2023-05-15T14:23:22.330Z,101117.38
2023-05-15T14:26:09.745Z,101114.38
2023-05-15T14:28:58.689Z,101109.97
2023-05-15T14:31:38.883Z,101106.06
2023-05-15T14:34:22.437Z,101104.78
2023-05-15T14:37:12.712Z,101099.91
2023-05-15T14:40:29.173Z,101102.63
2023-05-15T14:43:26.672Z,101107.34
2023-05-15T14:46:30.006Z,101099.63
2023-05-15T14:50:10.356Z,101098.25
2023-05-15T14:53:13.525Z,101095.38
2023-05-15T14:57:24.238Z,101091.75
2023-05-15T15:00:03.419Z,101083.38
2023-05-15T15:02:38.499Z,101072.47
2023-05-15T15:05:22.061Z,101083.81
2023-05-15T15:08:36.247Z,101084.69
2023-05-15T15:11:19.220Z,101082.28
2023-05-15T15:13:52.467Z,101072.03
2023-05-15T15:16:24.209Z,101079.06
2023-05-15T15:19:08.203Z,101081.19
2023-05-15T15:22:08.405Z,101074.28
2023-05-15T15:24:49.379Z,101066.13
2023-05-15T15:27:20.534Z,101061.50
2023-05-15T15:30:25.688Z,101065.53
2023-05-15T15:33:22.201Z,101069.94
2023-05-15T15:52:20.691Z,101034.84
2023-05-15T15:58:56.609Z,101034.28
2023-05-15T16:02:06.599Z,101027.63
2023-05-15T16:06:06.422Z,101008.75
2023-05-15T16:20:29.693Z,100989.38
2023-05-15T16:27:08.548Z,100973.28
2023-05-15T16:30:18.647Z,100970.78
2023-05-15T16:33:01.860Z,100968.97
2023-05-15T16:35:43.125Z,100966.59
2023-05-15T16:38:38.245Z,100967.09
2023-05-15T16:41:50.941Z,100959.56
2023-05-15T16:45:26.981Z,100951.44
2023-05-15T16:49:05.931Z,100942.00
2023-05-15T16:51:46.081Z,100942.72
2023-05-15T16:54:53.795Z,100936.38
2023-05-15T16:57:53.595Z,100937.50
2023-05-15T17:00:38.834Z,100918.38
2023-05-15T17:03:20.301Z,100920.66
2023-05-15T17:06:24.433Z,100906.66
2023-05-15T17:09:16.142Z,100907.22
2023-05-15T17:11:56.879Z,100898.00
2023-05-15T17:15:21.433Z,100888.13
2023-05-15T17:17:57.266Z,100884.19
2023-05-15T17:20:28.210Z,100888.72
2023-05-15T17:24:00.873Z,100867.22
2023-05-15T17:29:54.755Z,100861.00
2023-05-15T17:32:29.732Z,100858.06
2023-05-15T17:35:08.722Z,100857.41
2023-05-15T17:38:01.262Z,100848.41
2023-05-15T17:40:30.802Z,100830.44
2023-05-15T17:43:22.141Z,100827.81
2023-05-15T17:45:54.554Z,100808.91
2023-05-15T17:48:27.050Z,100813.78
2023-05-15T17:51:13.462Z,100809.31
2023-05-15T17:53:48.472Z,100794.53
2023-05-15T17:56:21.985Z,100798.56
2023-05-15T17:58:54.136Z,100785.75
2023-05-15T18:01:26.814Z,100789.88
2023-05-15T18:04:03.359Z,100778.72
2023-05-15T18:06:38.748Z,100782.44
2023-05-15T18:09:09.583Z,100776.91
2023-05-15T18:11:40.950Z,100767.50
2023-05-15T18:14:46.333Z,100767.53
2023-05-15T18:17:25.019Z,100763.00
2023-05-15T18:19:59.111Z,100762.16
2023-05-15T18:22:30.855Z,100759.56
2023-05-15T18:25:01.771Z,100748.78
2023-05-15T18:27:35.351Z,100754.16
2023-05-15T18:30:06.556Z,100742.91
2023-05-15T18:32:42.056Z,100745.19
2023-05-15T18:35:21.248Z,100742.38
2023-05-15T18:38:02.707Z,100732.94
2023-05-15T18:40:49.965Z,100732.66
2023-05-15T18:43:26.457Z,100725.13
2023-05-15T18:46:05.503Z,100719.34
2023-05-15T18:48:37.027Z,100717.94
2023-05-15T18:51:11.207Z,100717.88
2023-05-15T18:53:47.713Z,100714.69
2023-05-15T18:56:24.305Z,100714.22
2023-05-15T18:59:00.225Z,100717.78
2023-05-15T19:01:58.959Z,100708.72
2023-05-15T19:04:52.079Z,100709.31
2023-05-15T19:07:42.104Z,100700.25
2023-05-15T19:10:44.725Z,100685.03
2023-05-15T19:14:25.220Z,100693.63
2023-05-15T19:17:20.396Z,100679.72
2023-05-15T19:20:05.147Z,100684.66
2023-05-15T19:22:57.126Z,100676.03
2023-05-15T19:25:36.111Z,100670.56
2023-05-15T19:28:21.485Z,100673.16
2023-05-15T19:30:53.312Z,100664.13
2023-05-15T19:34:30.896Z,100648.63
2023-05-15T19:38:00.810Z,100650.34
2023-05-15T19:43:25.740Z,100634.38
2023-05-15T19:46:05.733Z,100632.66
2023-05-15T19:48:53.133Z,100614.66
2023-05-15T19:54:34.249Z,100608.16
2023-05-15T19:57:10.718Z,100601.63
2023-05-15T19:59:51.058Z,100595.03
2023-05-15T20:02:25.224Z,100595.31
2023-05-15T20:08:31.776Z,100580.13
2023-05-15T20:11:22.278Z,100573.28
2023-05-15T20:15:26.649Z,100569.72
2023-05-15T20:18:25.432Z,100559.06
2023-05-15T20:22:20.749Z,100554.44
2023-05-15T20:25:17.001Z,100558.78
2023-05-15T20:28:12.843Z,100546.78
2023-05-15T20:31:04.998Z,100546.78
2023-05-15T20:33:41.602Z,100537.19
2023-05-15T20:36:50.110Z,100536.09
2023-05-15T20:39:37.973Z,100530.38
2023-05-15T20:42:24.970Z,100525.63
2023-05-15T20:45:26.910Z,100524.31
2023-05-15T20:48:04.489Z,100516.44
2023-05-15T20:50:58.077Z,100519.72
2023-05-15T20:54:21.194Z,100513.72
2023-05-15T20:57:03.340Z,100516.69
2023-05-15T20:59:37.652Z,100512.88
2023-05-15T21:02:19.096Z,100516.41
2023-05-15T21:04:50.754Z,100513.41
2023-05-15T21:07:42.356Z,100513.16
2023-05-15T21:10:17.422Z,100511.25
2023-05-15T21:12:49.995Z,100508.25
2023-05-15T21:15:21.008Z,100503.06
2023-05-15T21:17:58.585Z,100504.16
2023-05-15T21:20:38.697Z,100498.41
2023-05-15T21:23:15.349Z,100495.69
2023-05-15T21:25:50.082Z,100492.41
2023-05-15T21:28:22.657Z,100490.50
2023-05-15T21:31:01.945Z,100483.09
2023-05-15T21:33:40.638Z,100471.63
2023-05-15T21:36:15.250Z,100476.81
2023-05-15T21:38:50.854Z,100465.91
2023-05-15T21:41:22.837Z,100470.81
2023-05-15T21:43:55.670Z,100460.69
2023-05-15T21:46:26.317Z,100462.88
2023-05-15T21:48:56.587Z,100456.03
2023-05-15T21:51:30.095Z,100447.56
2023-05-15T21:54:29.218Z,100436.53
2023-05-15T21:57:04.609Z,100445.88
2023-05-15T21:59:49.627Z,100442.88
2023-05-15T22:02:37.888Z,100445.03
2023-05-15T22:08:31.675Z,100428.38
2023-05-15T22:11:27.263Z,100427.38
2023-05-15T22:14:35.061Z,100422.94
2023-05-15T22:17:57.724Z,100420.09
2023-05-15T22:20:34.588Z,100416.75
2023-05-15T22:23:19.252Z,100412.88
2023-05-15T22:26:03.208Z,100409.03
2023-05-15T22:29:09.816Z,100405.91
2023-05-15T22:31:53.132Z,100409.06
2023-05-15T22:34:31.443Z,100399.50
2023-05-15T22:37:29.107Z,100389.59
2023-05-15T22:40:06.566Z,100401.06
2023-05-15T22:42:39.282Z,100398.13
2023-05-15T22:45:17.298Z,100394.91
2023-05-15T22:47:50.464Z,100390.03
2023-05-15T22:50:19.372Z,100385.72
2023-05-15T22:52:52.831Z,100384.97
2023-05-15T22:55:22.778Z,100378.44
2023-05-15T22:57:57.924Z,100377.00
2023-05-15T23:00:28.760Z,100381.84
2023-05-15T23:03:04.600Z,100374.97
2023-05-15T23:05:42.527Z,100378.50
2023-05-15T23:08:49.106Z,100368.00
2023-05-15T23:11:53.329Z,100377.06
2023-05-15T23:14:29.386Z,100372.53
2023-05-15T23:17:08.394Z,100372.56
2023-05-15T23:19:44.809Z,100368.22
2023-05-15T23:22:18.899Z,100363.59
2023-05-15T23:24:56.926Z,100366.38
2023-05-15T23:27:30.300Z,100367.41
2023-05-15T23:30:05.307Z,100363.84
2023-05-15T23:32:43.252Z,100366.91
2023-05-15T23:35:16.322Z,100368.81
2023-05-15T23:37:46.721Z,100377.31
2023-05-15T23:40:16.180Z,100369.41
2023-05-15T23:42:45.407Z,100362.84
2023-05-15T23:45:17.397Z,100372.16
2023-05-15T23:47:47.470Z,100366.44
2023-05-15T23:50:16.923Z,100365.31
2023-05-15T23:52:46.328Z,100375.19
2023-05-15T23:55:15.696Z,100368.91
2023-05-15T23:57:44.640Z,100374.09
